createdAt,value
2022-09-10T00:02:10.830Z,98.42
2022-09-10T00:04:38.659Z,98.40
2022-09-10T00:07:06.556Z,98.56
2022-09-10T00:09:34.296Z,98.68
2022-09-10T00:12:02.153Z,98.83
2022-09-10T00:14:31.349Z,99.09
2022-09-10T00:16:59.169Z,99.20
2022-09-10T00:19:27.105Z,99.34
2022-09-10T00:21:54.846Z,99.18
2022-09-10T00:24:24.352Z,99.32
2022-09-10T00:26:52.837Z,99.47
2022-09-10T00:29:20.605Z,99.53
2022-09-10T00:31:50.887Z,99.66
2022-09-10T00:34:18.603Z,99.81
2022-09-10T00:36:46.886Z,99.99
2022-09-10T00:39:15.287Z,100.00
2022-09-10T00:41:46.813Z,100.00
2022-09-10T00:44:35.639Z,100.00
2022-09-10T00:47:05.992Z,100.00
2022-09-10T00:49:35.056Z,100.00
2022-09-10T00:52:03.926Z,100.00
2022-09-10T00:54:33.245Z,100.00
2022-09-10T00:57:18.603Z,100.00
2022-09-10T00:59:48.289Z,100.00
2022-09-10T01:02:17.819Z,100.00
2022-09-10T01:04:46.038Z,100.00
2022-09-10T01:07:15.738Z,100.00
2022-09-10T01:09:44.095Z,100.00
2022-09-10T01:12:19.972Z,100.00
2022-09-10T01:14:56.380Z,100.00
2022-09-10T01:17:30.020Z,100.00
2022-09-10T01:20:15.363Z,100.00
2022-09-10T01:22:50.974Z,100.00
2022-09-10T01:25:23.058Z,100.00
2022-09-10T01:27:54.235Z,100.00
2022-09-10T01:30:23.005Z,100.00
2022-09-10T01:32:53.815Z,100.00
2022-09-10T01:35:24.117Z,100.00
2022-09-10T01:37:54.607Z,100.00
2022-09-10T01:40:29.758Z,100.00
2022-09-10T01:43:02.454Z,100.00
2022-09-10T01:45:30.988Z,100.00
2022-09-10T01:48:06.734Z,100.00
2022-09-10T01:50:39.720Z,100.00
2022-09-10T01:53:14.153Z,100.00
2022-09-10T01:55:47.232Z,100.00
2022-09-10T01:58:21.398Z,100.00
2022-09-10T02:00:53.810Z,100.00
2022-09-10T02:03:25.030Z,100.00
2022-09-10T02:05:54.974Z,100.00
2022-09-10T02:08:24.571Z,100.00
2022-09-10T02:10:54.066Z,100.00
2022-09-10T02:13:23.899Z,100.00
2022-09-10T02:15:52.582Z,100.00
2022-09-10T02:18:21.041Z,100.00
2022-09-10T02:20:49.493Z,100.00
2022-09-10T02:23:21.975Z,100.00
2022-09-10T02:25:50.660Z,100.00
2022-09-10T02:28:18.655Z,100.00
2022-09-10T02:30:48.377Z,100.00
2022-09-10T02:33:18.548Z,100.00
2022-09-10T02:35:47.879Z,100.00
2022-09-10T02:38:16.495Z,100.00
2022-09-10T02:40:44.393Z,100.00
2022-09-10T02:43:12.620Z,100.00
2022-09-10T02:45:41.215Z,100.00
2022-09-10T02:48:10.412Z,100.00
2022-09-10T02:50:38.138Z,100.00
2022-09-10T02:53:07.055Z,100.00
2022-09-10T02:55:35.130Z,100.00
2022-09-10T02:58:03.145Z,100.00
2022-09-10T03:00:32.736Z,100.00
2022-09-10T03:03:03.098Z,100.00
2022-09-10T03:05:32.784Z,100.00
2022-09-10T03:08:01.375Z,100.00
2022-09-10T03:10:30.018Z,100.00
2022-09-10T03:12:57.770Z,100.00
2022-09-10T03:15:25.648Z,100.00
2022-09-10T03:17:53.467Z,100.00
2022-09-10T03:20:23.201Z,100.00
2022-09-10T03:22:52.603Z,100.00
2022-09-10T03:25:20.715Z,100.00
2022-09-10T03:27:48.483Z,100.00
2022-09-10T03:30:16.311Z,100.00
2022-09-10T03:32:44.461Z,100.00
2022-09-10T03:35:13.884Z,100.00
2022-09-10T03:37:41.690Z,100.00
2022-09-10T03:40:11.994Z,100.00
2022-09-10T03:42:39.966Z,100.00
2022-09-10T03:45:08.436Z,100.00
2022-09-10T03:47:37.686Z,100.00
2022-09-10T03:50:05.802Z,100.00
2022-09-10T03:52:33.653Z,100.00
2022-09-10T03:55:01.410Z,100.00
2022-09-10T03:57:30.636Z,100.00
2022-09-10T03:59:58.883Z,100.00
2022-09-10T04:02:26.717Z,100.00
2022-09-10T04:04:54.619Z,100.00
2022-09-10T04:07:22.480Z,100.00
2022-09-10T04:09:50.481Z,100.00
2022-09-10T04:12:18.529Z,100.00
2022-09-10T04:14:47.797Z,100.00
2022-09-10T04:17:15.826Z,100.00
2022-09-10T04:19:43.593Z,100.00
2022-09-10T04:22:11.379Z,100.00
2022-09-10T04:24:39.185Z,100.00
2022-09-10T04:27:06.966Z,100.00
2022-09-10T04:29:38.160Z,100.00
2022-09-10T04:32:07.563Z,100.00
2022-09-10T04:34:35.376Z,100.00
2022-09-10T04:37:03.329Z,100.00
2022-09-10T04:39:31.121Z,100.00
2022-09-10T04:41:58.995Z,100.00
2022-09-10T04:44:27.943Z,100.00
2022-09-10T04:46:55.929Z,100.00
2022-09-10T04:49:25.180Z,100.00
2022-09-10T04:51:53.237Z,100.00
2022-09-10T04:54:21.030Z,100.00
2022-09-10T04:56:49.696Z,100.00
2022-09-10T04:59:17.470Z,100.00
2022-09-10T05:01:45.470Z,100.00
2022-09-10T05:04:13.247Z,100.00
2022-09-10T05:06:43.081Z,100.00
2022-09-10T05:09:11.591Z,100.00
2022-09-10T05:11:39.333Z,100.00
2022-09-10T05:14:07.492Z,100.00
2022-09-10T05:16:36.582Z,100.00
2022-09-10T05:19:04.453Z,100.00
2022-09-10T05:21:32.234Z,100.00
2022-09-10T05:24:01.473Z,100.00
2022-09-10T05:26:29.459Z,100.00
2022-09-10T05:28:59.837Z,100.00
2022-09-10T05:31:28.157Z,100.00
2022-09-10T05:33:56.255Z,100.00
2022-09-10T05:36:24.412Z,100.00
2022-09-10T05:38:52.556Z,100.00
2022-09-10T05:41:21.776Z,100.00
2022-09-10T05:43:49.805Z,100.00
2022-09-10T05:46:17.871Z,100.00
2022-09-10T05:48:45.846Z,100.00
2022-09-10T05:51:16.453Z,100.00
2022-09-10T05:53:44.271Z,100.00
2022-09-10T05:56:12.926Z,100.00
2022-09-10T05:58:44.982Z,100.00
2022-09-10T06:01:12.773Z,100.00
2022-09-10T06:03:42.577Z,100.00
2022-09-10T06:06:11.127Z,100.00
2022-09-10T06:08:42.299Z,100.00
2022-09-10T06:11:11.950Z,100.00
2022-09-10T06:13:40.190Z,100.00
2022-09-10T06:16:10.050Z,100.00
2022-09-10T06:18:38.562Z,100.00
2022-09-10T06:21:07.770Z,100.00
2022-09-10T06:23:36.237Z,100.00
2022-09-10T06:26:05.267Z,100.00
2022-09-10T06:28:33.803Z,100.00
2022-09-10T06:31:05.819Z,100.00
2022-09-10T06:33:35.693Z,100.00
2022-09-10T06:36:03.775Z,100.00
2022-09-10T06:38:33.706Z,100.00
2022-09-10T06:41:04.836Z,100.00
2022-09-10T06:43:33.808Z,100.00
2022-09-10T06:46:01.611Z,100.00
2022-09-10T06:48:48.078Z,100.00
2022-09-10T06:51:17.857Z,100.00
2022-09-10T06:53:47.159Z,100.00
2022-09-10T06:56:15.964Z,100.00
2022-09-10T06:58:45.047Z,100.00
2022-09-10T07:01:18.077Z,100.00
2022-09-10T07:03:46.412Z,100.00
2022-09-10T07:06:16.753Z,100.00
2022-09-10T07:08:46.180Z,99.95
2022-09-10T07:11:15.021Z,99.75
2022-09-10T07:13:43.622Z,99.63
2022-09-10T07:16:11.557Z,99.40
2022-09-10T07:18:39.616Z,99.37
2022-09-10T07:21:08.023Z,99.07
2022-09-10T07:23:35.830Z,99.04
2022-09-10T07:26:09.915Z,98.58
2022-09-10T07:28:38.160Z,98.32
2022-09-10T07:31:16.909Z,98.19
2022-09-10T07:33:44.781Z,98.03
2022-09-10T07:36:16.670Z,97.80
2022-09-10T07:38:48.755Z,97.64
2022-09-10T07:41:21.163Z,97.44
2022-09-10T07:43:49.664Z,97.33
2022-09-10T07:46:20.725Z,97.21
2022-09-10T07:48:49.039Z,97.09
2022-09-10T07:51:19.330Z,97.08
2022-09-10T07:53:50.590Z,96.92
2022-09-10T07:56:20.543Z,96.75
2022-09-10T07:58:48.404Z,96.51
2022-09-10T08:01:19.758Z,96.27
2022-09-10T08:03:47.947Z,96.03
2022-09-10T08:06:18.476Z,96.06
2022-09-10T08:11:47.275Z,95.72
2022-09-10T08:14:15.306Z,95.49
2022-09-10T08:16:44.531Z,95.40
2022-09-10T08:19:13.969Z,95.09
2022-09-10T08:21:41.802Z,94.98
2022-09-10T08:24:11.664Z,94.93
2022-09-10T08:26:39.506Z,94.87
2022-09-10T08:29:09.248Z,94.99
2022-09-10T08:31:37.106Z,94.54
2022-09-10T08:34:05.625Z,94.29
2022-09-10T08:36:33.378Z,94.01
2022-09-10T08:39:05.113Z,93.88
2022-09-10T08:41:41.587Z,93.81
2022-09-10T08:44:17.729Z,93.23
2022-09-10T08:46:48.498Z,92.83
2022-09-10T08:49:20.379Z,92.02
2022-09-10T08:51:50.935Z,90.48
2022-09-10T08:54:21.010Z,89.29
2022-09-10T08:56:49.271Z,87.68
2022-09-10T08:59:22.475Z,85.87
2022-09-10T09:01:52.777Z,85.74
2022-09-10T09:04:27.075Z,85.45
2022-09-10T09:06:57.977Z,85.16
2022-09-10T09:09:25.942Z,84.73
2022-09-10T09:12:00.120Z,84.15
2022-09-10T09:14:36.432Z,83.21
2022-09-10T09:17:19.860Z,82.51
2022-09-10T09:19:53.863Z,81.70
2022-09-10T09:22:22.654Z,81.05
2022-09-10T09:24:54.413Z,80.61
2022-09-10T09:27:22.186Z,79.41
2022-09-10T09:32:43.589Z,77.45
2022-09-10T09:35:23.854Z,77.05
2022-09-10T09:37:55.489Z,75.99
2022-09-10T09:40:32.731Z,74.46
2022-09-10T09:43:11.095Z,73.88
2022-09-10T09:45:43.471Z,74.31
2022-09-10T09:48:15.886Z,74.14
2022-09-10T09:50:47.052Z,73.65
2022-09-10T09:53:23.349Z,73.33
2022-09-10T09:55:55.247Z,73.00
2022-09-10T09:58:35.312Z,72.69
2022-09-10T10:01:16.408Z,72.90
2022-09-10T10:03:52.938Z,72.90
2022-09-10T10:06:24.775Z,73.24
2022-09-10T10:09:01.965Z,72.90
2022-09-10T10:11:51.864Z,73.07
2022-09-10T10:14:42.620Z,73.34
2022-09-10T10:26:08.135Z,70.47
2022-09-10T11:28:58.015Z,63.35
2022-09-10T11:31:32.222Z,60.87
2022-09-10T11:34:07.051Z,59.82
2022-09-10T11:36:43.899Z,60.20
2022-09-10T11:39:19.788Z,60.25
2022-09-10T11:41:52.700Z,60.63
2022-09-10T11:44:46.099Z,60.45
2022-09-10T11:47:21.144Z,60.75
2022-09-10T11:49:54.066Z,60.56
2022-09-10T11:52:26.068Z,61.47
2022-09-10T11:54:57.751Z,61.06
2022-09-10T11:57:35.263Z,61.09
2022-09-10T12:00:15.873Z,60.67
2022-09-10T12:03:28.151Z,60.25
2022-09-10T12:06:07.026Z,60.54
2022-09-10T12:08:52.375Z,60.26
2022-09-10T12:11:30.074Z,60.05
2022-09-10T12:13:58.958Z,59.49
2022-09-10T12:16:36.763Z,60.24
2022-09-10T12:19:17.932Z,60.24
2022-09-10T12:21:52.507Z,59.96
2022-09-10T12:24:38.889Z,61.41
2022-09-10T12:27:10.223Z,61.88
2022-09-10T12:29:40.942Z,61.82
2022-09-10T12:32:39.266Z,61.01
2022-09-10T12:35:43.312Z,61.21
2022-09-10T12:38:56.003Z,60.93
2022-09-10T12:41:56.673Z,60.69
2022-09-10T12:44:34.639Z,59.71
2022-09-10T12:47:42.367Z,59.82
2022-09-10T12:50:40.560Z,60.03
2022-09-10T12:53:37.799Z,59.44
2022-09-10T12:56:50.500Z,59.56
2022-09-10T12:59:42.274Z,59.87
2022-09-10T13:02:23.117Z,59.65
2022-09-10T13:04:58.764Z,59.84
2022-09-10T13:07:33.591Z,58.68
2022-09-10T13:10:07.233Z,58.94
2022-09-10T13:12:38.311Z,59.05
2022-09-10T13:15:17.445Z,58.78
2022-09-10T13:18:21.591Z,58.14
2022-09-10T13:20:52.485Z,58.24
2022-09-10T13:23:45.487Z,58.60
2022-09-10T13:26:38.531Z,58.42
2022-09-10T13:29:11.697Z,58.50
2022-09-10T13:31:45.982Z,58.24
2022-09-10T13:34:48.912Z,58.06
2022-09-10T13:37:44.167Z,57.99
2022-09-10T13:40:53.660Z,57.61
2022-09-10T13:43:40.240Z,57.71
2022-09-10T13:46:15.253Z,57.83
2022-09-10T13:48:51.822Z,58.10
2022-09-10T13:51:31.436Z,57.85
2022-09-10T13:54:08.708Z,57.95
2022-09-10T13:56:45.338Z,58.43
2022-09-10T13:59:20.957Z,57.49
2022-09-10T14:01:51.103Z,57.66
2022-09-10T14:04:32.096Z,57.26
2022-09-10T14:07:08.161Z,57.75
2022-09-10T14:09:37.872Z,57.91
2022-09-10T14:12:12.295Z,58.06
2022-09-10T14:14:44.340Z,58.70
2022-09-10T14:17:17.177Z,58.59
2022-09-10T14:19:52.028Z,58.93
2022-09-10T14:22:23.018Z,59.12
2022-09-10T14:24:54.172Z,58.94
2022-09-10T14:27:26.532Z,58.98
2022-09-10T14:29:57.557Z,59.01
2022-09-10T14:32:33.418Z,58.91
2022-09-10T14:35:37.923Z,59.48
2022-09-10T14:38:23.711Z,60.14
2022-09-10T14:40:58.498Z,59.65
2022-09-10T14:43:32.499Z,59.47
2022-09-10T14:46:03.638Z,59.23
2022-09-10T14:48:37.215Z,59.69
2022-09-10T14:51:13.606Z,59.34
2022-09-10T14:53:43.911Z,59.40
2022-09-10T14:56:23.544Z,59.71
2022-09-10T14:58:59.889Z,59.88
2022-09-10T15:01:28.795Z,59.97
2022-09-10T15:03:57.702Z,60.53
2022-09-10T15:06:27.005Z,60.58
2022-09-10T15:08:57.299Z,60.13
2022-09-10T15:11:29.059Z,60.32
2022-09-10T15:13:59.414Z,60.53
2022-09-10T15:16:27.853Z,60.80
2022-09-10T15:18:56.238Z,61.18
2022-09-10T15:21:24.438Z,61.39
2022-09-10T15:23:52.634Z,61.89
2022-09-10T15:26:22.377Z,62.17
2022-09-10T15:28:50.715Z,61.76
2022-09-10T15:31:20.257Z,62.12
2022-09-10T15:33:48.678Z,61.86
2022-09-10T15:36:17.023Z,62.15
2022-09-10T15:38:46.725Z,62.07
2022-09-10T15:41:17.112Z,62.56
2022-09-10T15:43:47.273Z,62.29
2022-09-10T15:46:16.186Z,62.61
2022-09-10T15:48:45.255Z,62.44
2022-09-10T15:51:16.195Z,62.44
2022-09-10T15:53:46.429Z,62.46
2022-09-10T15:56:17.148Z,62.79
2022-09-10T15:58:54.063Z,62.55
2022-09-10T16:01:24.079Z,62.40
2022-09-10T16:03:55.590Z,62.36
2022-09-10T16:06:25.007Z,62.59
2022-09-10T16:08:57.422Z,62.62
2022-09-10T16:11:26.394Z,62.69
2022-09-10T16:14:02.180Z,62.89
2022-09-10T16:16:34.345Z,63.14
2022-09-10T16:19:02.546Z,63.18
2022-09-10T16:21:33.872Z,62.97
2022-09-10T16:24:03.098Z,62.67
2022-09-10T16:26:33.707Z,62.77
2022-09-10T16:29:07.629Z,62.67
2022-09-10T16:31:39.186Z,62.93
2022-09-10T16:34:09.722Z,62.72
2022-09-10T16:36:41.148Z,63.21
2022-09-10T16:39:13.088Z,63.23
2022-09-10T16:41:42.610Z,63.03
2022-09-10T16:44:13.658Z,62.96
2022-09-10T16:46:43.270Z,63.53
2022-09-10T16:49:14.079Z,63.30
2022-09-10T16:51:43.421Z,63.44
2022-09-10T16:54:16.031Z,63.28
2022-09-10T16:56:46.624Z,63.52
2022-09-10T16:59:19.716Z,63.68
2022-09-10T17:01:50.134Z,63.16
2022-09-10T17:04:27.599Z,63.03
2022-09-10T17:06:59.163Z,63.00
2022-09-10T17:09:27.826Z,63.19
2022-09-10T17:11:56.248Z,63.35
2022-09-10T17:14:26.054Z,63.79
2022-09-10T17:16:54.376Z,64.13
2022-09-10T17:19:26.281Z,64.05
2022-09-10T17:21:57.196Z,64.13
2022-09-10T17:24:27.884Z,64.53
2022-09-10T17:26:56.757Z,65.26
2022-09-10T17:29:29.144Z,65.87
2022-09-10T17:31:57.609Z,66.48
2022-09-10T17:34:27.448Z,66.92
2022-09-10T17:36:56.456Z,67.18
2022-09-10T17:39:28.385Z,67.78
2022-09-10T17:41:56.574Z,67.82
2022-09-10T17:44:27.131Z,68.18
2022-09-10T17:46:55.920Z,68.33
2022-09-10T17:49:25.690Z,68.79
2022-09-10T17:51:53.892Z,68.64
2022-09-10T17:54:23.512Z,69.02
2022-09-10T17:56:51.720Z,69.12
2022-09-10T17:59:20.121Z,69.67
2022-09-10T18:01:49.802Z,69.90
2022-09-10T18:04:21.782Z,70.30
2022-09-10T18:06:52.787Z,70.74
2022-09-10T18:09:22.232Z,70.92
2022-09-10T18:11:51.730Z,71.14
2022-09-10T18:14:24.564Z,71.35
2022-09-10T18:16:58.164Z,71.89
2022-09-10T18:19:26.753Z,72.39
2022-09-10T18:21:56.119Z,72.68
2022-09-10T18:24:25.176Z,73.05
2022-09-10T18:26:55.016Z,73.35
2022-09-10T18:29:25.475Z,73.63
2022-09-10T18:31:57.800Z,73.88
2022-09-10T18:34:28.107Z,74.30
2022-09-10T18:36:58.129Z,74.34
2022-09-10T18:39:27.995Z,74.71
2022-09-10T18:41:57.277Z,74.97
2022-09-10T18:44:27.776Z,75.38
2022-09-10T18:47:00.486Z,75.95
2022-09-10T18:49:29.331Z,76.23
2022-09-10T18:51:58.159Z,76.33
2022-09-10T18:54:29.524Z,76.79
2022-09-10T18:56:58.211Z,77.12
2022-09-10T18:59:27.489Z,77.37
2022-09-10T19:02:00.058Z,77.31
2022-09-10T19:04:29.998Z,77.84
2022-09-10T19:06:59.322Z,78.12
2022-09-10T19:09:29.349Z,78.35
2022-09-10T19:12:00.436Z,78.45
2022-09-10T19:14:31.021Z,78.74
2022-09-10T19:17:02.096Z,79.10
2022-09-10T19:19:32.142Z,79.28
2022-09-10T19:22:03.760Z,79.47
2022-09-10T19:24:53.651Z,79.87
2022-09-10T19:27:21.780Z,79.85
2022-09-10T19:29:50.395Z,80.09
2022-09-10T19:32:22.088Z,80.20
2022-09-10T19:34:51.428Z,80.69
2022-09-10T19:37:19.987Z,80.67
2022-09-10T19:39:48.314Z,81.09
2022-09-10T19:42:18.541Z,81.20
2022-09-10T19:44:49.405Z,81.11
2022-09-10T19:47:17.914Z,81.34
2022-09-10T19:49:54.172Z,81.66
2022-09-10T19:52:28.967Z,81.90
2022-09-10T19:55:09.465Z,82.27
2022-09-10T19:57:38.030Z,82.32
2022-09-10T20:00:20.615Z,82.78
2022-09-10T20:03:02.745Z,82.92
2022-09-10T20:05:34.138Z,83.23
2022-09-10T20:08:05.315Z,83.38
2022-09-10T20:10:33.719Z,83.50
2022-09-10T20:13:01.922Z,83.84
2022-09-10T20:15:30.296Z,84.00
2022-09-10T20:17:58.498Z,84.30
2022-09-10T20:20:26.871Z,84.52
2022-09-10T20:22:58.455Z,84.83
2022-09-10T20:25:28.429Z,84.91
2022-09-10T20:27:56.900Z,85.03
2022-09-10T20:30:25.385Z,85.36
2022-09-10T20:32:54.270Z,85.70
2022-09-10T20:35:22.499Z,85.74
2022-09-10T20:37:51.834Z,85.84
2022-09-10T20:40:21.595Z,86.12
2022-09-10T20:42:49.739Z,86.29
2022-09-10T20:45:17.974Z,86.49
2022-09-10T20:47:48.629Z,86.61
2022-09-10T20:50:16.814Z,86.95
2022-09-10T20:52:45.183Z,86.99
2022-09-10T20:55:13.426Z,87.16
2022-09-10T20:57:43.165Z,87.42
2022-09-10T21:00:12.931Z,87.51
2022-09-10T21:02:41.278Z,87.59
2022-09-10T21:05:13.626Z,87.95
2022-09-10T21:07:44.510Z,88.00
2022-09-10T21:10:12.682Z,88.11
2022-09-10T21:12:42.493Z,88.29
2022-09-10T21:15:12.073Z,88.43
2022-09-10T21:17:40.298Z,88.46
2022-09-10T21:20:08.808Z,88.69
2022-09-10T21:22:37.013Z,88.75
2022-09-10T21:25:05.878Z,88.79
2022-09-10T21:27:34.310Z,89.29
2022-09-10T21:30:04.734Z,89.11
2022-09-10T21:32:37.161Z,89.14
2022-09-10T21:35:08.460Z,89.41
2022-09-10T21:37:36.605Z,89.37
2022-09-10T21:40:05.426Z,89.69
2022-09-10T21:42:33.714Z,89.84
2022-09-10T21:45:03.692Z,89.85
2022-09-10T21:47:33.351Z,89.97
2022-09-10T21:50:01.501Z,90.22
2022-09-10T21:52:29.839Z,90.32
2022-09-10T21:54:58.085Z,90.53
2022-09-10T21:57:26.478Z,90.51
2022-09-10T21:59:54.575Z,90.60
2022-09-10T22:02:24.552Z,90.87
2022-09-10T22:04:53.356Z,90.92
2022-09-10T22:07:21.517Z,90.99
2022-09-10T22:09:50.398Z,91.07
2022-09-10T22:12:18.639Z,91.21
2022-09-10T22:14:46.840Z,91.64
2022-09-10T22:17:15.212Z,91.63
2022-09-10T22:19:44.932Z,91.63
2022-09-10T22:22:13.307Z,91.57
2022-09-10T22:24:41.609Z,91.64
2022-09-10T22:27:10.710Z,91.86
2022-09-10T22:29:38.943Z,91.87
2022-09-10T22:32:07.561Z,91.99
2022-09-10T22:34:36.655Z,92.18
2022-09-10T22:37:06.788Z,92.41
2022-09-10T22:39:37.160Z,92.63
2022-09-10T22:42:06.030Z,92.84
2022-09-10T22:44:34.539Z,92.86
2022-09-10T22:47:03.287Z,92.92
2022-09-10T22:49:31.473Z,93.03
2022-09-10T22:51:59.842Z,93.05
2022-09-10T22:54:30.660Z,93.26
2022-09-10T22:56:59.643Z,93.43
2022-09-10T22:59:27.947Z,93.54
2022-09-10T23:01:56.593Z,93.54
2022-09-10T23:04:24.832Z,93.58
2022-09-10T23:06:53.588Z,93.82
2022-09-10T23:09:21.941Z,93.82
2022-09-10T23:11:51.820Z,93.82
2022-09-10T23:14:22.183Z,94.02
2022-09-10T23:16:51.902Z,94.15
2022-09-10T23:19:22.589Z,94.38
2022-09-10T23:21:52.331Z,94.55
2022-09-10T23:24:22.871Z,94.62
2022-09-10T23:26:52.477Z,94.86
2022-09-10T23:29:21.649Z,94.98
2022-09-10T23:31:53.545Z,95.21
2022-09-10T23:34:22.743Z,95.63
2022-09-10T23:36:51.450Z,95.72
2022-09-10T23:39:21.743Z,95.89
2022-09-10T23:41:54.637Z,95.93
2022-09-10T23:44:23.233Z,96.28
2022-09-10T23:46:52.107Z,96.30
2022-09-10T23:49:20.753Z,96.49
2022-09-10T23:51:49.234Z,96.73
2022-09-10T23:54:17.521Z,96.70
2022-09-10T23:56:46.104Z,96.88
